Time;durP1;ratioP1;P1;durP2;ratioP2;P2;SDS_P1;SDS_P2;PMS_P1;PMS_P2;Temp;Humidity;BMP_temperature;BMP_pressure;BME280_temperature;BME280_humidity;BME280_pressure;Samples;Min_cycle;Max_cycle;Signal;HPM_P1;HPM_P2
2023/08/30 00:01:05;;;;;;;3.95;3.50;;;;;;;10.76;100.00;97758.59;4170956;28;20393;-72
2023/08/30 00:03:07;;;;;;;9.32;3.92;;;;;;;10.71;100.00;97753.50;4172315;28;20530;-72
2023/08/30 00:05:09;;;;;;;4.65;3.78;;;;;;;10.65;100.00;97753.88;4173317;28;20037;-72
2023/08/30 00:07:10;;;;;;;5.40;3.58;;;;;;;10.64;100.00;97755.06;4172594;28;20040;-72
2023/08/30 00:09:12;;;;;;;4.22;3.83;;;;;;;10.61;100.00;97758.63;4172706;28;20033;-72
2023/08/30 00:11:14;;;;;;;6.05;3.60;;;;;;;10.60;100.00;97759.81;4171986;28;20499;-72
2023/08/30 00:13:14;;;;;;;10.13;3.60;;;;;;;10.58;100.00;97769.69;4160421;28;20045;-72
2023/08/30 00:15:15;;;;;;;7.78;3.63;;;;;;;10.60;100.00;97770.91;4171694;28;20056;-72
2023/08/30 00:17:15;;;;;;;4.55;3.10;;;;;;;10.68;100.00;97791.84;4172835;28;20073;-72
2023/08/30 00:19:16;;;;;;;3.55;3.05;;;;;;;10.71;100.00;97779.19;4172494;28;20045;-72
2023/08/30 00:21:16;;;;;;;3.47;3.00;;;;;;;10.75;100.00;97784.69;4171780;28;20087;-72
2023/08/30 00:23:16;;;;;;;4.72;3.08;;;;;;;10.76;100.00;97791.81;4171941;28;20528;-72
2023/08/30 00:25:17;;;;;;;3.42;3.13;;;;;;;10.74;100.00;97792.22;4172014;28;20544;-72
2023/08/30 00:27:17;;;;;;;3.30;3.00;;;;;;;10.74;100.00;97791.44;4172862;28;20414;-72
2023/08/30 00:29:17;;;;;;;4.07;2.97;;;;;;;10.75;100.00;97791.03;4171965;28;20109;-72
2023/08/30 00:31:18;;;;;;;4.22;2.88;;;;;;;10.77;100.00;97788.66;4171740;28;20065;-71
2023/08/30 00:33:18;;;;;;;4.28;3.20;;;;;;;10.78;100.00;97800.53;4172218;28;20128;-72
2023/08/30 00:35:19;;;;;;;4.18;2.92;;;;;;;10.75;100.00;97790.22;4171868;28;20064;-72
2023/08/30 00:37:19;;;;;;;5.15;3.38;;;;;;;10.75;100.00;97796.56;4172763;28;20085;-72
2023/08/30 00:39:19;;;;;;;4.15;3.10;;;;;;;10.71;100.00;97792.22;4172762;28;20194;-72
2023/08/30 00:41:20;;;;;;;6.43;3.50;;;;;;;10.62;100.00;97790.66;4175111;28;20065;-72
2023/08/30 00:43:20;;;;;;;3.13;2.63;;;;;;;10.55;100.00;97795.38;4175409;28;20041;-72
2023/08/30 00:45:21;;;;;;;4.72;3.28;;;;;;;10.49;100.00;97786.66;4176637;28;20037;-72
2023/08/30 00:47:21;;;;;;;4.35;3.10;;;;;;;10.44;100.00;97780.75;4175751;28;20049;-72
2023/08/30 00:49:22;;;;;;;4.20;2.75;;;;;;;10.43;100.00;97791.03;4175339;28;20102;-72
2023/08/30 00:51:22;;;;;;;5.63;3.10;;;;;;;10.39;100.00;97796.53;4175150;28;20045;-72
2023/08/30 00:53:23;;;;;;;4.55;3.15;;;;;;;10.32;100.00;97791.00;4175272;28;20083;-72
2023/08/30 00:55:23;;;;;;;6.30;3.50;;;;;;;10.29;100.00;97796.53;4175711;28;20462;-72
2023/08/30 00:57:24;;;;;;;6.13;3.40;;;;;;;10.15;100.00;97791.72;4175583;28;20060;-72
2023/08/30 00:59:24;;;;;;;8.65;3.30;;;;;;;10.09;100.00;97791.34;4175341;28;20045;-72
2023/08/30 01:01:25;;;;;;;4.18;3.40;;;;;;;10.03;100.00;97795.66;4175092;28;20045;-72
2023/08/30 01:03:26;;;;;;;3.55;3.25;;;;;;;9.94;100.00;97786.97;4174909;28;20041;-72
2023/08/30 01:05:26;;;;;;;4.50;2.80;;;;;;;9.92;100.00;97794.03;4175505;28;20047;-72
2023/08/30 01:07:27;;;;;;;4.72;3.13;;;;;;;9.86;100.00;97790.88;4175338;28;20053;-72
2023/08/30 01:09:27;;;;;;;3.20;2.90;;;;;;;9.82;100.00;97788.09;4175520;28;20481;-72
2023/08/30 01:11:49;;;;;;;4.20;3.13;;;;;;;9.89;100.00;97795.63;4175179;28;20053;-72
2023/08/30 01:13:55;;;;;;;4.82;2.78;;;;;;;9.96;100.00;97797.63;4174297;28;20068;-72
2023/08/30 01:15:58;;;;;;;7.68;3.50;;;;;;;9.95;100.00;97794.06;4174688;28;20041;-72
2023/08/30 01:17:58;;;;;;;;;;;;;;;10.02;100.00;97793.31;4175996;28;20091;-72
2023/08/30 01:20:20;;;;;;;3.80;3.05;;;;;;;10.04;100.00;97796.47;4174632;28;19951;-71
2023/08/30 01:22:39;;;;;;;5.30;3.03;;;;;;;10.00;100.00;97792.88;4174663;28;20055;-72
2023/08/30 01:24:55;;;;;;;4.05;3.10;;;;;;;9.96;100.00;97795.66;4174829;28;20462;-72
2023/08/30 01:27:07;;;;;;;5.03;2.92;;;;;;;9.93;100.00;97790.09;4175414;28;20492;-72
2023/08/30 01:29:11;;;;;;;5.05;3.45;;;;;;;9.88;100.00;97782.19;4174596;28;20044;-72
2023/08/30 01:31:13;;;;;;;9.50;3.85;;;;;;;9.84;100.00;97793.22;4174291;28;20044;-72
2023/08/30 01:33:17;;;;;;;5.35;3.28;;;;;;;9.81;100.00;97794.00;4174250;28;20381;-72
2023/08/30 01:35:19;;;;;;;6.10;3.28;;;;;;;9.79;100.00;97785.31;4174280;28;20045;-72
2023/08/30 01:37:20;;;;;;;6.55;3.40;;;;;;;9.81;100.00;97783.75;4174971;28;20176;-72
2023/08/30 01:39:22;;;;;;;5.13;2.85;;;;;;;9.85;100.00;97797.59;4175006;28;20048;-72
2023/08/30 01:41:24;;;;;;;4.45;3.03;;;;;;;9.91;100.00;97796.00;4174843;28;20330;-72
2023/08/30 01:43:28;;;;;;;6.15;3.25;;;;;;;9.95;100.00;97799.59;4173580;28;20047;-72
2023/08/30 01:45:29;;;;;;;6.07;3.17;;;;;;;9.99;100.00;97794.84;4174893;28;20111;-72
2023/08/30 01:47:31;;;;;;;6.07;3.13;;;;;;;10.00;100.00;97796.44;4174670;28;20131;-72
2023/08/30 01:49:32;;;;;;;3.58;3.08;;;;;;;10.01;100.00;97792.50;4174573;28;20045;-72
2023/08/30 01:51:33;;;;;;;3.50;2.88;;;;;;;10.05;100.00;97793.28;4174327;28;20060;-72
2023/08/30 01:53:34;;;;;;;4.85;3.15;;;;;;;10.06;100.00;97792.13;4173931;28;20049;-72
2023/08/30 01:55:36;;;;;;;6.45;3.05;;;;;;;10.05;100.00;97781.44;4174744;28;20041;-72
2023/08/30 01:57:36;;;;;;;4.90;2.92;;;;;;;10.11;100.00;97785.41;4174625;28;20428;-72
2023/08/30 01:59:36;;;;;;;3.90;3.13;;;;;;;10.12;100.00;97781.47;4174818;28;20045;-72
2023/08/30 02:01:37;;;;;;;6.13;3.22;;;;;;;10.10;100.00;97779.09;4174387;28;20053;-71
2023/08/30 02:03:37;;;;;;;3.95;3.20;;;;;;;10.11;100.00;97777.91;4161946;28;20049;-72
2023/08/30 02:05:48;;;;;;;7.35;3.40;;;;;;;10.08;100.00;97773.16;4173574;28;20045;-72
2023/08/30 02:07:48;;;;;;;5.10;3.40;;;;;;;10.11;100.00;97780.69;4174177;28;20053;-72
2023/08/30 02:09:57;;;;;;;5.78;3.33;;;;;;;10.10;100.00;97784.63;4174744;28;20052;-72
2023/08/30 02:12:02;;;;;;;3.85;3.35;;;;;;;10.13;100.00;97783.06;4174559;28;20045;-71
2023/08/30 02:14:06;;;;;;;3.63;3.10;;;;;;;10.16;100.00;97784.22;4173551;28;20051;-72
2023/08/30 02:16:09;;;;;;;4.50;3.20;;;;;;;10.16;100.00;97781.47;4174211;28;20072;-72
2023/08/30 02:18:09;;;;;;;;;;;;;;;10.20;100.00;97777.53;4174618;28;20477;-72
2023/08/30 02:20:10;;;;;;;3.22;2.92;;;;;;;10.21;100.00;97786.63;4173125;28;19927;-72
2023/08/30 02:22:11;;;;;;;5.82;3.42;;;;;;;10.19;100.00;97792.53;4174281;28;20055;-72
2023/08/30 02:24:11;;;;;;;4.88;4.03;;;;;;;10.19;100.00;97781.50;4173361;28;20405;-72
2023/08/30 02:26:11;;;;;;;5.13;3.30;;;;;;;10.14;100.00;97788.19;4174225;28;20430;-72
2023/08/30 02:28:12;;;;;;;3.47;3.17;;;;;;;10.08;100.00;97780.66;4174167;28;20481;-72
2023/08/30 02:30:12;;;;;;;4.65;3.47;;;;;;;10.06;100.00;97783.81;4174145;28;20078;-72
2023/08/30 02:32:12;;;;;;;4.45;3.78;;;;;;;10.02;100.00;97774.75;4173953;28;20099;-72
2023/08/30 02:34:13;;;;;;;4.88;3.25;;;;;;;10.01;100.00;97777.88;4173984;28;20163;-72
2023/08/30 02:36:13;;;;;;;3.40;3.10;;;;;;;10.02;100.00;97777.50;4173941;28;20115;-72
2023/08/30 02:38:14;;;;;;;4.57;3.55;;;;;;;10.04;100.00;97777.91;4174070;28;20041;-72
2023/08/30 02:40:14;;;;;;;3.72;3.42;;;;;;;10.07;100.00;97768.81;4173359;28;20044;-72
2023/08/30 02:42:14;;;;;;;5.93;3.30;;;;;;;10.06;100.00;97777.50;4159350;28;20083;-72
2023/08/30 02:44:15;;;;;;;3.95;3.30;;;;;;;10.06;100.00;97778.28;4173307;28;20090;-72
2023/08/30 02:46:15;;;;;;;7.65;4.25;;;;;;;10.03;100.00;97792.13;4174329;28;20061;-72
2023/08/30 02:48:15;;;;;;;3.88;3.33;;;;;;;9.97;100.00;97772.34;4174445;28;20028;-72
2023/08/30 02:50:16;;;;;;;5.10;3.28;;;;;;;9.95;100.00;97777.47;4173170;28;20029;-71
2023/08/30 02:52:17;;;;;;;6.28;3.25;;;;;;;9.95;100.00;97771.16;4173441;28;20029;-72
2023/08/30 02:54:18;;;;;;;4.55;3.80;;;;;;;9.89;100.00;97761.66;4173751;28;20463;-72
2023/08/30 02:56:18;;;;;;;3.90;3.47;;;;;;;9.82;100.00;97763.22;4173518;28;20071;-72
2023/08/30 02:58:18;;;;;;;4.40;4.00;;;;;;;9.78;100.00;97756.13;4173759;28;20061;-72
2023/08/30 03:00:19;;;;;;;3.97;3.58;;;;;;;9.74;100.00;97752.53;4173237;28;20052;-72
2023/08/30 03:02:19;;;;;;;4.80;3.80;;;;;;;9.68;100.00;97757.69;4172884;28;20040;-72
2023/08/30 03:04:19;;;;;;;4.32;3.50;;;;;;;9.64;100.00;97758.84;4173282;28;20078;-72
2023/08/30 03:06:20;;;;;;;5.40;3.80;;;;;;;9.61;100.00;97754.09;4172574;28;20044;-72
2023/08/30 03:08:20;;;;;;;10.68;5.10;;;;;;;9.55;100.00;97748.94;4174098;28;25685;-72
2023/08/30 03:10:20;;;;;;;4.70;4.15;;;;;;;9.53;100.00;97753.28;4173035;28;20060;-72
2023/08/30 03:12:21;;;;;;;5.57;3.53;;;;;;;9.57;100.00;97751.31;4173103;28;20083;-71
2023/08/30 03:14:21;;;;;;;5.10;4.03;;;;;;;9.64;100.00;97756.06;4172478;28;20190;-71
2023/08/30 03:16:21;;;;;;;5.25;3.47;;;;;;;9.65;100.00;97755.69;4173371;28;20089;-72
2023/08/30 03:18:22;;;;;;;5.43;3.85;;;;;;;9.68;100.00;97756.84;4173543;28;20064;-71
2023/08/30 03:20:22;;;;;;;4.65;3.88;;;;;;;9.69;100.00;97741.91;4173321;28;20044;-71
2023/08/30 03:22:22;;;;;;;8.23;3.25;;;;;;;9.71;100.00;97758.84;4173357;28;20079;-72
2023/08/30 03:24:23;;;;;;;5.05;3.25;;;;;;;9.68;100.00;97751.34;4172054;28;20574;-72
2023/08/30 03:26:23;;;;;;;4.07;3.03;;;;;;;9.66;100.00;97757.25;4173441;28;20152;-71
2023/08/30 03:28:23;;;;;;;4.43;3.33;;;;;;;9.67;100.00;97752.53;4173476;28;20123;-71
2023/08/30 03:30:24;;;;;;;7.75;3.25;;;;;;;9.65;100.00;97760.41;4172204;28;20417;-72
2023/08/30 03:32:24;;;;;;;7.85;3.80;;;;;;;9.59;100.00;97765.50;4172614;28;20133;-72
2023/08/30 03:34:24;;;;;;;5.60;3.33;;;;;;;9.45;100.00;97760.72;4172594;28;20103;-71
2023/08/30 03:36:25;;;;;;;5.57;3.58;;;;;;;9.39;100.00;97761.50;4172687;28;20057;-71
2023/08/30 03:38:25;;;;;;;3.88;3.47;;;;;;;9.35;100.00;97746.88;4172398;28;20052;-72
2023/08/30 03:40:27;;;;;;;4.35;3.38;;;;;;;9.32;100.00;97751.19;4172757;28;20139;-71
2023/08/30 03:42:27;;;;;;;5.87;3.47;;;;;;;9.34;100.00;97757.13;4172645;28;20507;-71
2023/08/30 03:44:27;;;;;;;6.80;3.60;;;;;;;9.33;100.00;97752.78;4172336;28;20033;-71
2023/08/30 03:46:28;;;;;;;6.90;3.35;;;;;;;9.28;100.00;97755.94;4173952;28;20524;-71
2023/08/30 03:48:29;;;;;;;4.25;3.20;;;;;;;9.21;100.00;97764.16;4173102;28;20652;-72
2023/08/30 03:50:29;;;;;;;5.68;3.75;;;;;;;9.12;100.00;97769.25;4172614;28;20060;-71
2023/08/30 03:52:29;;;;;;;3.88;3.17;;;;;;;8.99;100.00;97766.78;4172234;28;20261;-72
2023/08/30 03:54:30;;;;;;;6.20;3.33;;;;;;;8.95;100.00;97773.47;4172854;28;20183;-72
2023/08/30 03:56:30;;;;;;;6.53;3.80;;;;;;;8.98;100.00;97767.19;4172358;28;20137;-72
2023/08/30 03:58:31;;;;;;;10.20;3.83;;;;;;;8.95;100.00;97767.97;4172947;28;20249;-71
2023/08/30 04:00:31;;;;;;;4.22;3.42;;;;;;;8.87;100.00;97766.31;4172672;28;20053;-72
2023/08/30 04:02:32;;;;;;;5.10;3.38;;;;;;;8.88;100.00;97771.44;4171937;28;20132;-71
2023/08/30 04:04:32;;;;;;;3.80;2.97;;;;;;;8.87;100.00;97771.84;4172992;28;20084;-71
2023/08/30 04:06:32;;;;;;;4.00;3.05;;;;;;;8.84;100.00;97762.34;4172256;28;20461;-71
2023/08/30 04:08:33;;;;;;;4.00;2.90;;;;;;;8.83;100.00;97777.31;4172629;28;20501;-71
2023/08/30 04:10:38;;;;;;;5.28;3.50;;;;;;;8.78;100.00;97771.38;4172485;28;20508;-71
2023/08/30 04:12:38;;;;;;;6.75;3.53;;;;;;;8.70;100.00;97774.09;4171668;28;20683;-71
2023/08/30 04:14:39;;;;;;;5.22;3.42;;;;;;;8.66;100.00;97778.78;4172552;28;20496;-71
2023/08/30 04:16:39;;;;;;;9.30;3.55;;;;;;;8.68;100.00;97778.38;4172649;28;20041;-71
2023/08/30 04:18:39;;;;;;;4.00;3.15;;;;;;;8.67;100.00;97774.84;4172297;28;20088;-71
2023/08/30 04:20:46;;;;;;;5.40;3.05;;;;;;;8.69;100.00;97777.22;4172175;28;20094;-71
2023/08/30 04:22:47;;;;;;;8.32;3.83;;;;;;;8.73;100.00;97772.53;4171270;28;20072;-71
2023/08/30 04:24:48;;;;;;;5.25;3.35;;;;;;;8.77;100.00;97775.28;4172583;28;20080;-71
2023/08/30 04:26:51;;;;;;;8.45;3.08;;;;;;;8.75;100.00;97761.09;4172372;28;20056;-71
2023/08/30 04:28:51;;;;;;;;;;;;;;;8.74;100.00;97768.59;4172724;28;20048;-71
2023/08/30 04:30:54;;;;;;;6.50;2.90;;;;;;;8.73;100.00;97761.50;4171898;28;19975;-71
2023/08/30 04:32:54;;;;;;;9.45;3.70;;;;;;;8.72;100.00;97757.94;4171860;28;20120;-71
2023/08/30 04:34:55;;;;;;;6.03;3.50;;;;;;;8.76;100.00;97768.19;4171764;28;20071;-71
2023/08/30 04:36:55;;;;;;;3.90;3.50;;;;;;;8.75;100.00;97764.66;4172197;28;20055;-71
2023/08/30 04:38:55;;;;;;;6.47;3.83;;;;;;;8.78;100.00;97768.63;4171395;28;20313;-71
2023/08/30 04:41:02;;;;;;;4.97;3.40;;;;;;;8.80;100.00;97764.31;4172267;28;20084;-71
2023/08/30 04:43:03;;;;;;;5.72;3.15;;;;;;;8.79;100.00;97768.25;4171749;28;20106;-71
2023/08/30 04:45:04;;;;;;;3.97;3.15;;;;;;;8.76;100.00;97766.22;4172891;28;20560;-71
2023/08/30 04:47:04;;;;;;;5.32;3.38;;;;;;;8.68;100.00;97775.63;4171915;28;20037;-71
2023/08/30 04:49:04;;;;;;;7.15;3.90;;;;;;;8.64;100.00;97772.06;4172638;28;20056;-71
2023/08/30 04:51:05;;;;;;;3.80;3.08;;;;;;;8.63;100.00;97764.97;4171956;28;20044;-71
2023/08/30 04:53:05;;;;;;;5.18;3.50;;;;;;;8.61;100.00;97767.31;4171540;28;20052;-71
2023/08/30 04:55:06;;;;;;;6.30;3.70;;;;;;;8.57;100.00;97770.03;4172195;28;20056;-71
2023/08/30 04:57:06;;;;;;;5.80;3.50;;;;;;;8.54;100.00;97767.25;4171910;28;20094;-71
2023/08/30 04:59:07;;;;;;;9.65;3.70;;;;;;;8.54;100.00;97773.56;4172224;28;20061;-71
2023/08/30 05:01:08;;;;;;;5.47;3.40;;;;;;;8.49;100.00;97764.84;4172495;28;20465;-71
2023/08/30 05:03:08;;;;;;;6.30;3.40;;;;;;;8.52;100.00;97767.63;4171149;28;20036;-71
2023/08/30 05:05:09;;;;;;;4.75;2.90;;;;;;;8.53;100.00;97766.47;4172173;28;20480;-71
2023/08/30 05:07:10;;;;;;;7.03;3.22;;;;;;;8.50;100.00;97760.91;4171515;28;20041;-71
2023/08/30 05:09:10;;;;;;;4.68;3.17;;;;;;;8.48;100.00;97760.50;4172450;28;20132;-71
2023/08/30 05:11:10;;;;;;;5.78;3.40;;;;;;;8.52;100.00;97756.59;4171809;28;20056;-71
2023/08/30 05:13:11;;;;;;;3.30;2.78;;;;;;;8.56;100.00;97762.16;4171338;28;20087;-71
2023/08/30 05:15:11;;;;;;;4.78;3.60;;;;;;;8.61;100.00;97757.09;4172389;28;20103;-71
2023/08/30 05:17:11;;;;;;;3.85;3.28;;;;;;;8.64;100.00;97753.56;4171457;28;20406;-71
2023/08/30 05:19:12;;;;;;;3.35;3.05;;;;;;;8.71;100.00;97750.06;4172139;28;20051;-71
2023/08/30 05:21:12;;;;;;;5.30;2.88;;;;;;;8.73;100.00;97754.00;4171906;28;20500;-71
2023/08/30 05:23:12;;;;;;;4.25;3.08;;;;;;;8.80;100.00;97746.97;4171276;28;20049;-71
2023/08/30 05:25:13;;;;;;;8.30;3.10;;;;;;;8.78;100.00;97750.09;4171441;28;20045;-71
2023/08/30 05:27:14;;;;;;;4.95;2.95;;;;;;;8.82;100.00;97758.41;4175233;28;20090;-71
2023/08/30 05:29:15;;;;;;;7.35;3.42;;;;;;;8.87;100.00;97756.09;4175432;28;20496;-71
2023/08/30 05:31:15;;;;;;;3.97;2.80;;;;;;;8.88;100.00;97740.31;4174766;28;20094;-71
2023/08/30 05:33:16;;;;;;;6.72;3.58;;;;;;;8.96;100.00;97745.50;4174191;28;20485;-71
2023/08/30 05:35:16;;;;;;;5.45;3.30;;;;;;;8.98;100.00;97754.16;4173592;28;20052;-71
2023/08/30 05:37:16;;;;;;;5.82;3.30;;;;;;;9.02;100.00;97740.41;4174555;28;20704;-71
2023/08/30 05:39:16;;;;;;;3.85;3.40;;;;;;;9.04;100.00;97734.50;4175072;28;20128;-71
2023/08/30 05:41:17;;;;;;;4.30;3.65;;;;;;;9.05;100.00;97736.88;4174510;28;20091;-71
2023/08/30 05:43:18;;;;;;;5.43;3.70;;;;;;;9.12;100.00;97742.44;4174202;28;20072;-71
2023/08/30 05:45:18;;;;;;;4.88;3.45;;;;;;;9.14;100.00;97744.81;4175630;28;20547;-71
2023/08/30 05:47:20;;;;;;;4.07;3.42;;;;;;;9.21;100.00;97742.88;4174720;28;20071;-71
2023/08/30 05:49:20;;;;;;;5.00;3.53;;;;;;;9.26;100.00;97730.66;4175010;28;20051;-71
2023/08/30 05:51:21;;;;;;;5.95;3.55;;;;;;;9.34;100.00;97743.31;4174414;28;20045;-71
2023/08/30 05:53:21;;;;;;;4.85;3.60;;;;;;;9.39;100.00;97736.63;4174239;28;20045;-71
2023/08/30 05:55:21;;;;;;;4.20;3.80;;;;;;;9.48;100.00;97746.16;4174930;28;20737;-71
2023/08/30 05:57:23;;;;;;;7.15;4.00;;;;;;;9.54;100.00;97739.06;4174164;28;20040;-71
2023/08/30 05:59:23;;;;;;;6.18;3.83;;;;;;;9.56;100.00;97736.72;4174949;28;20045;-71
2023/08/30 06:01:24;;;;;;;5.65;3.60;;;;;;;9.66;100.00;97737.13;4174433;28;20067;-71
2023/08/30 06:03:25;;;;;;;5.63;4.32;;;;;;;9.72;100.00;97743.88;4174573;28;20045;-71
2023/08/30 06:05:26;;;;;;;5.22;4.38;;;;;;;9.72;100.00;97736.38;4173882;28;20106;-71
2023/08/30 06:07:26;;;;;;;10.15;4.10;;;;;;;9.79;100.00;97733.63;4174169;28;20405;-71
2023/08/30 06:09:27;;;;;;;7.85;4.13;;;;;;;9.83;100.00;97736.38;4174687;28;20209;-71
2023/08/30 06:11:27;;;;;;;7.10;3.97;;;;;;;9.90;100.00;97736.41;4174044;28;20037;-71
2023/08/30 06:13:27;;;;;;;8.15;4.75;;;;;;;9.97;100.00;97739.19;4173664;28;20123;-71
2023/08/30 06:15:28;;;;;;;7.18;4.85;;;;;;;10.04;100.00;97738.41;4174555;28;20056;-71
2023/08/30 06:17:28;;;;;;;6.00;4.55;;;;;;;10.12;100.00;97735.28;4174345;28;20049;-71
2023/08/30 06:19:29;;;;;;;4.90;4.40;;;;;;;10.21;100.00;97734.09;4174072;28;20053;-71
2023/08/30 06:21:29;;;;;;;4.53;4.13;;;;;;;10.28;100.00;97737.69;4174058;28;20048;-71
2023/08/30 06:23:29;;;;;;;5.95;4.75;;;;;;;10.35;100.00;97746.00;4173579;28;20052;-71
2023/08/30 06:25:30;;;;;;;5.03;4.15;;;;;;;10.39;100.00;97738.47;4173919;28;20127;-71
2023/08/30 06:27:30;;;;;;;5.47;4.78;;;;;;;10.47;100.00;97738.47;4173952;28;20531;-71
2023/08/30 06:29:31;;;;;;;4.75;4.25;;;;;;;10.54;100.00;97736.50;4174385;28;20049;-72
2023/08/30 06:31:32;;;;;;;5.38;4.47;;;;;;;10.63;100.00;97734.13;4172799;28;20088;-71
2023/08/30 06:33:32;;;;;;;5.53;4.88;;;;;;;10.74;100.00;97734.09;4173055;28;20037;-71
2023/08/30 06:35:36;;;;;;;6.22;5.20;;;;;;;10.82;100.00;97741.22;4174386;28;20049;-71
2023/08/30 06:37:36;;;;;;;7.32;5.65;;;;;;;10.88;100.00;97744.38;4174061;28;20049;-71
2023/08/30 06:39:37;;;;;;;5.45;4.85;;;;;;;10.86;100.00;97733.72;4173799;28;20040;-71
2023/08/30 06:41:37;;;;;;;6.18;5.00;;;;;;;10.87;100.00;97734.50;4174013;28;20455;-71
2023/08/30 06:43:37;;;;;;;5.80;4.75;;;;;;;10.91;100.00;97741.59;4173494;28;20068;-71
2023/08/30 06:45:42;;;;;;;5.97;5.10;;;;;;;10.89;100.00;97740.41;4174082;28;20124;-71
2023/08/30 06:47:42;;;;;;;6.13;4.68;;;;;;;10.89;100.00;97729.34;4173514;28;20378;-72
2023/08/30 06:49:43;;;;;;;6.60;4.88;;;;;;;10.90;100.00;97739.22;4174073;28;20102;-71
2023/08/30 06:51:43;;;;;;;5.03;4.35;;;;;;;10.89;100.00;97743.97;4174041;28;20790;-71
2023/08/30 06:53:43;;;;;;;7.22;4.55;;;;;;;10.91;100.00;97740.81;4173235;28;20053;-71
2023/08/30 06:55:44;;;;;;;8.25;4.22;;;;;;;10.93;100.00;97732.91;4173927;28;20037;-71
2023/08/30 06:57:49;;;;;;;5.40;4.50;;;;;;;10.96;100.00;97737.66;4173911;28;20049;-71
2023/08/30 06:59:50;;;;;;;7.03;4.82;;;;;;;11.03;100.00;97736.84;4174111;28;20044;-71
2023/08/30 07:01:50;;;;;;;6.10;4.45;;;;;;;11.10;100.00;97734.84;4173100;28;20056;-71
2023/08/30 07:03:50;;;;;;;6.63;4.70;;;;;;;11.18;100.00;97728.09;4173062;28;20188;-71
2023/08/30 07:05:51;;;;;;;7.82;4.70;;;;;;;11.28;100.00;97732.03;4173610;28;20076;-71
2023/08/30 07:07:52;;;;;;;6.50;5.20;;;;;;;11.37;100.00;97734.38;4173376;28;20534;-71
2023/08/30 07:09:52;;;;;;;9.00;5.40;;;;;;;11.48;100.00;97726.81;4173822;28;20088;-71
2023/08/30 07:11:52;;;;;;;6.70;5.25;;;;;;;11.58;100.00;97725.16;4173253;28;20053;-71
2023/08/30 07:13:53;;;;;;;5.10;4.60;;;;;;;11.69;100.00;97725.94;4173145;28;20056;-71
2023/08/30 07:15:54;;;;;;;6.35;5.47;;;;;;;11.84;100.00;97719.16;4173334;28;20041;-71
2023/08/30 07:17:54;;;;;;;6.82;5.40;;;;;;;11.97;100.00;97722.22;4173090;28;20045;-71
2023/08/30 07:19:54;;;;;;;8.70;5.35;;;;;;;12.09;100.00;97730.88;4173666;28;20048;-71
2023/08/30 07:21:55;;;;;;;6.38;5.72;;;;;;;12.18;100.00;97718.53;4173165;28;20133;-71
2023/08/30 07:23:55;;;;;;;8.25;5.25;;;;;;;12.26;100.00;97715.31;4172691;28;20044;-71
2023/08/30 07:25:55;;;;;;;9.30;6.28;;;;;;;12.35;100.00;97715.63;4173273;28;20041;-71
2023/08/30 07:27:56;;;;;;;8.43;5.60;;;;;;;12.44;100.00;97717.16;4173163;28;20128;-71
2023/08/30 07:29:56;;;;;;;7.88;5.90;;;;;;;12.52;100.00;97715.91;4172878;28;20567;-71
2023/08/30 07:31:57;;;;;;;6.57;5.50;;;;;;;12.57;100.00;97719.00;4172807;28;20061;-71
2023/08/30 07:33:59;;;;;;;7.32;5.65;;;;;;;12.65;100.00;97719.72;4172962;28;20083;-71
2023/08/30 07:35:59;;;;;;;6.38;5.25;;;;;;;12.74;100.00;97720.03;4172808;28;20041;-71
2023/08/30 07:38:00;;;;;;;5.72;5.20;;;;;;;12.85;100.00;97717.97;4172977;28;20190;-71
2023/08/30 07:40:00;;;;;;;5.80;5.15;;;;;;;12.93;100.00;97719.47;4173317;28;20409;-71
2023/08/30 07:42:01;;;;;;;6.63;5.60;;;;;;;12.98;100.00;97715.44;4173497;28;20052;-71
2023/08/30 07:44:01;;;;;;;7.50;5.90;;;;;;;13.01;100.00;97714.63;4171959;28;20410;-72
2023/08/30 07:46:02;;;;;;;5.38;4.88;;;;;;;13.04;100.00;97704.69;4172933;28;20615;-72
2023/08/30 07:48:02;;;;;;;5.50;4.50;;;;;;;13.09;100.00;97707.03;4172981;28;20377;-72
2023/08/30 07:50:05;;;;;;;8.00;5.10;;;;;;;13.16;100.00;97699.41;4172478;28;20029;-72
2023/08/30 07:52:08;;;;;;;;;;;;;;;13.25;100.00;97704.50;4173281;28;20036;-72
2023/08/30 07:54:09;;;;;;;6.80;5.38;;;;;;;13.32;100.00;97717.50;4172335;28;19951;-72
2023/08/30 07:56:09;;;;;;;7.88;6.25;;;;;;;13.41;100.00;97720.59;4173210;28;20033;-71
2023/08/30 07:58:10;;;;;;;6.72;5.90;;;;;;;13.49;100.00;97708.97;4172935;28;20482;-72
2023/08/30 08:00:11;;;;;;;7.40;5.40;;;;;;;13.59;100.00;97709.25;4172322;28;20485;-71
2023/08/30 08:02:11;;;;;;;9.93;6.10;;;;;;;13.68;100.00;97704.75;4172935;28;20043;-72
2023/08/30 08:04:11;;;;;;;6.32;5.60;;;;;;;13.75;100.00;97693.53;4172263;28;20051;-71
2023/08/30 08:06:11;;;;;;;7.03;5.75;;;;;;;13.82;100.00;97703.78;4172695;28;20029;-72
2023/08/30 08:08:12;;;;;;;5.75;5.15;;;;;;;13.87;100.00;97694.94;4172600;28;20033;-72
2023/08/30 08:10:12;;;;;;;7.07;5.30;;;;;;;13.90;100.00;97696.09;4172947;28;20033;-72
2023/08/30 08:12:13;;;;;;;7.03;5.38;;;;;;;13.98;100.00;97700.34;4172561;28;20029;-72
2023/08/30 08:14:13;;;;;;;6.90;6.10;;;;;;;14.02;100.00;97707.44;4171992;28;20082;-72
2023/08/30 08:16:13;;;;;;;6.22;5.30;;;;;;;14.11;100.00;97712.50;4172801;28;20148;-72
2023/08/30 08:18:14;;;;;;;7.85;5.75;;;;;;;14.20;100.00;97714.75;4172427;28;20036;-72
2023/08/30 08:20:14;;;;;;;6.53;5.70;;;;;;;14.29;100.00;97710.22;4172679;28;20528;-72
2023/08/30 08:22:14;;;;;;;9.38;5.93;;;;;;;14.39;100.00;97710.47;4172441;28;20384;-72
2023/08/30 08:24:15;;;;;;;8.63;5.53;;;;;;;14.40;100.00;97701.72;4172040;28;20067;-71
2023/08/30 08:26:15;;;;;;;6.90;4.85;;;;;;;14.42;100.00;97696.50;4172781;28;20476;-72
2023/08/30 08:28:17;;;;;;;7.97;5.00;;;;;;;14.49;100.00;97709.56;4172501;28;20039;-72
2023/08/30 08:30:17;;;;;;;7.25;5.28;;;;;;;14.51;100.00;97707.91;4172402;28;20443;-72
2023/08/30 08:32:18;;;;;;;6.82;5.53;;;;;;;14.64;100.00;97701.72;4172301;28;20032;-72
2023/08/30 08:34:18;;;;;;;8.70;5.80;;;;;;;14.71;100.00;97702.41;4171711;28;20397;-72
2023/08/30 08:36:19;;;;;;;10.82;6.35;;;;;;;14.82;100.00;97693.88;4172602;28;20061;-72
2023/08/30 08:38:20;;;;;;;7.30;5.40;;;;;;;14.87;100.00;97705.28;4172170;28;20067;-72
2023/08/30 08:40:21;;;;;;;6.68;5.63;;;;;;;14.91;100.00;97693.31;4172260;28;20045;-72
2023/08/30 08:42:21;;;;;;;5.25;4.75;;;;;;;14.94;100.00;97689.69;4172486;28;20049;-72
2023/08/30 08:44:24;;;;;;;8.85;6.53;;;;;;;14.95;100.00;97699.59;4171291;28;20084;-72
2023/08/30 08:46:26;;;;;;;5.65;5.13;;;;;;;14.92;100.00;97694.91;4173463;28;20116;-72
2023/08/30 08:48:33;;;;;;;5.15;4.65;;;;;;;14.92;100.00;97687.31;4171985;28;20045;-72
2023/08/30 08:50:33;;;;;;;8.32;5.63;;;;;;;14.93;100.00;97699.25;4171870;28;20044;-72
2023/08/30 08:52:34;;;;;;;8.48;5.57;;;;;;;14.98;100.00;97699.56;4172140;28;20456;-72
2023/08/30 08:54:35;;;;;;;7.22;5.20;;;;;;;15.02;100.00;97700.25;4172015;28;20049;-72
2023/08/30 08:56:37;;;;;;;8.10;4.80;;;;;;;15.08;100.00;97701.34;4171852;28;20179;-72
2023/08/30 08:58:38;;;;;;;6.97;5.23;;;;;;;15.24;100.00;97706.22;4171953;28;20053;-72
2023/08/30 09:00:38;;;;;;;8.82;5.50;;;;;;;15.31;100.00;97696.94;4173318;28;20067;-72
2023/08/30 09:02:40;;;;;;;4.97;4.47;;;;;;;15.38;100.00;97691.19;4174806;28;20077;-72
2023/08/30 09:04:41;;;;;;;7.35;4.70;;;;;;;15.49;100.00;97702.94;4175529;28;20037;-72
2023/08/30 09:06:43;;;;;;;5.45;4.50;;;;;;;15.61;100.00;97699.50;4175668;28;20489;-72
2023/08/30 09:08:43;;;;;;;5.25;4.32;;;;;;;15.75;100.00;97698.44;4174176;28;20123;-72
2023/08/30 09:10:45;;;;;;;5.15;3.80;;;;;;;15.92;100.00;97693.69;4206583;28;20352;-72
2023/08/30 09:12:45;;;;;;;6.35;3.15;;;;;;;16.01;100.00;97688.28;4173998;28;20049;-72
2023/08/30 09:14:56;;;;;;;3.28;2.50;;;;;;;16.19;100.00;97694.25;4175897;28;20419;-72
2023/08/30 09:17:03;;;;;;;3.38;2.13;;;;;;;16.35;100.00;97687.88;4175238;28;20052;-72
2023/08/30 09:19:04;;;;;;;2.00;1.75;;;;;;;16.47;100.00;97689.22;4175215;28;20132;-72
2023/08/30 09:21:11;;;;;;;2.57;1.90;;;;;;;16.56;100.00;97689.38;4173890;28;20068;-72
2023/08/30 09:23:21;;;;;;;4.65;2.17;;;;;;;16.74;100.00;97686.16;4174444;28;20041;-72
2023/08/30 09:25:26;;;;;;;3.28;2.38;;;;;;;16.99;100.00;97682.72;4173972;28;20518;-72
2023/08/30 09:27:33;;;;;;;4.20;2.67;;;;;;;17.13;100.00;97693.53;4175271;28;20076;-72